createdAt,value
2018-10-03T00:00:02.875Z,0
2018-10-03T00:05:03.258Z,0
2018-10-03T00:10:02.854Z,0
2018-10-03T00:15:02.603Z,0
2018-10-03T00:20:03.309Z,0
2018-10-03T00:25:02.938Z,0
2018-10-03T00:30:02.640Z,0
2018-10-03T00:35:03.257Z,0
2018-10-03T00:40:02.901Z,0
2018-10-03T00:45:02.522Z,0
2018-10-03T00:50:03.123Z,0
2018-10-03T00:55:02.691Z,0
2018-10-03T01:00:03.325Z,0
2018-10-03T01:05:02.948Z,0
2018-10-03T01:10:02.637Z,0
2018-10-03T01:15:03.263Z,0
2018-10-03T01:20:02.952Z,0
2018-10-03T01:25:02.502Z,0
2018-10-03T01:30:03.080Z,0
2018-10-03T01:35:02.714Z,0
2018-10-03T01:40:03.350Z,0
2018-10-03T01:45:02.938Z,0
2018-10-03T01:50:02.541Z,0
2018-10-03T01:55:03.169Z,0
2018-10-03T02:00:02.899Z,0
2018-10-03T02:05:02.438Z,0
2018-10-03T02:10:03.131Z,0
2018-10-03T02:15:02.723Z,0
2018-10-03T02:20:02.415Z,0
2018-10-03T02:25:03.038Z,0
2018-10-03T02:30:02.660Z,0
2018-10-03T02:35:03.260Z,0
2018-10-03T02:40:02.828Z,0
2018-10-03T02:45:02.513Z,0
2018-10-03T02:50:03.112Z,0
2018-10-03T02:55:02.685Z,0
2018-10-03T03:00:03.474Z,0
2018-10-03T03:05:03.036Z,0
2018-10-03T03:10:02.639Z,0
2018-10-03T03:15:03.188Z,0
2018-10-03T03:20:02.773Z,0
2018-10-03T03:25:03.278Z,0
2018-10-03T03:30:02.916Z,0
2018-10-03T03:35:02.496Z,0
2018-10-03T03:40:03.181Z,0
2018-10-03T03:45:02.758Z,0
2018-10-03T03:50:03.324Z,0
2018-10-03T03:55:02.872Z,0
2018-10-03T04:00:02.598Z,0
2018-10-03T04:05:03.231Z,0
2018-10-03T04:10:02.917Z,0
2018-10-03T04:15:02.592Z,0
2018-10-03T04:20:03.302Z,0
2018-10-03T04:25:02.896Z,0
2018-10-03T04:30:03.027Z,0
2018-10-03T04:35:02.531Z,0
2018-10-03T04:40:03.238Z,0
2018-10-03T04:45:02.779Z,0
2018-10-03T04:50:03.344Z,0
2018-10-03T04:55:02.980Z,0
2018-10-03T05:00:02.539Z,0
2018-10-03T05:05:03.253Z,1
2018-10-03T05:10:02.918Z,2
2018-10-03T05:15:02.596Z,6
2018-10-03T05:20:03.129Z,17
2018-10-03T05:25:02.679Z,38
2018-10-03T05:30:03.268Z,50
2018-10-03T05:35:02.845Z,60
2018-10-03T05:40:02.509Z,70
2018-10-03T05:45:03.094Z,88
2018-10-03T05:50:02.712Z,123
2018-10-03T05:55:03.325Z,252
2018-10-03T06:00:02.891Z,374
2018-10-03T06:05:02.546Z,502
2018-10-03T06:10:03.195Z,522
2018-10-03T06:15:02.791Z,568
2018-10-03T06:20:02.413Z,688
2018-10-03T06:25:03.001Z,926
2018-10-03T06:30:02.825Z,1000
2018-10-03T06:35:02.558Z,2000
2018-10-03T06:40:03.254Z,1000
2018-10-03T06:45:02.837Z,1000
2018-10-03T06:50:02.701Z,1000
2018-10-03T06:55:03.357Z,1000
2018-10-03T07:00:02.956Z,1000
2018-10-03T07:05:02.676Z,2000
2018-10-03T07:10:02.420Z,2000
2018-10-03T07:15:02.977Z,2000
2018-10-03T07:20:02.749Z,3000
2018-10-03T07:25:02.545Z,4000
2018-10-03T07:30:03.330Z,3000
2018-10-03T07:35:03.048Z,4000
2018-10-03T07:40:02.744Z,4000
2018-10-03T07:45:02.487Z,5000
2018-10-03T07:50:03.171Z,7000
2018-10-03T07:55:02.761Z,7000
2018-10-03T08:00:02.424Z,6000
2018-10-03T08:05:03.024Z,7000
2018-10-03T08:10:02.823Z,7000
2018-10-03T08:15:02.978Z,8000
2018-10-03T08:20:02.707Z,6000
2018-10-03T08:25:02.703Z,29000
2018-10-03T08:30:03.375Z,28000
2018-10-03T08:35:03.357Z,14000
2018-10-03T08:40:03.004Z,18000
2018-10-03T08:45:02.641Z,37000
2018-10-03T08:50:03.323Z,35000
2018-10-03T08:55:02.881Z,34000
2018-10-03T09:00:02.454Z,34000
2018-10-03T09:05:03.198Z,32000
2018-10-03T09:10:02.877Z,36000
2018-10-03T09:15:02.433Z,23000
2018-10-03T09:20:03.070Z,33000
2018-10-03T09:25:02.740Z,37000
2018-10-03T09:30:02.381Z,36000
2018-10-03T09:35:03.130Z,21000
2018-10-03T09:40:02.862Z,40000
2018-10-03T09:45:02.475Z,38000
2018-10-03T09:50:03.022Z,36000
2018-10-03T09:55:02.589Z,35000
2018-10-03T10:00:03.218Z,27000
2018-10-03T10:05:02.794Z,41000
2018-10-03T10:10:02.504Z,20000
2018-10-03T10:15:03.183Z,36000
2018-10-03T10:20:02.420Z,40000
2018-10-03T10:25:02.764Z,29000
2018-10-03T10:30:03.324Z,39000
2018-10-03T10:35:02.919Z,24000
2018-10-03T10:40:02.724Z,7000
2018-10-03T10:45:02.619Z,34000
2018-10-03T10:50:03.225Z,9000
2018-10-03T10:55:03.091Z,10000
2018-10-03T11:00:02.736Z,10000
2018-10-03T11:05:02.297Z,7000
2018-10-03T11:10:03.023Z,6000
2018-10-03T11:15:02.624Z,6000
2018-10-03T11:20:03.214Z,5000
2018-10-03T11:25:03.051Z,7000
2018-10-03T11:30:03.178Z,12000
2018-10-03T11:35:02.846Z,11000
2018-10-03T11:40:02.513Z,41000
2018-10-03T11:45:03.416Z,41000
2018-10-03T11:50:02.961Z,35000
2018-10-03T11:55:02.614Z,43000
2018-10-03T12:00:03.214Z,23000
2018-10-03T12:05:02.826Z,39000
2018-10-03T12:10:02.532Z,43000
2018-10-03T12:15:03.063Z,44000
2018-10-03T12:20:02.622Z,35000
2018-10-03T12:25:03.437Z,47000
2018-10-03T12:30:03.297Z,42000
2018-10-03T12:35:02.896Z,36000
2018-10-03T12:40:02.517Z,12000
2018-10-03T12:45:03.292Z,5000
2018-10-03T12:50:03.180Z,4000
2018-10-03T12:55:02.849Z,4000
2018-10-03T13:00:03.425Z,5000
2018-10-03T13:05:03.023Z,5000
2018-10-03T13:10:02.687Z,4000
2018-10-03T13:15:03.242Z,4000
2018-10-03T13:20:02.800Z,4000
2018-10-03T13:25:02.475Z,30000
2018-10-03T13:30:03.059Z,36000
2018-10-03T13:35:02.606Z,11000
2018-10-03T13:40:03.314Z,28000
2018-10-03T13:45:02.865Z,34000
2018-10-03T13:50:02.813Z,25000
2018-10-03T13:55:02.468Z,23000
2018-10-03T14:00:03.065Z,29000
2018-10-03T14:05:02.698Z,8000
2018-10-03T14:10:03.389Z,23000
2018-10-03T14:15:02.942Z,17000
2018-10-03T14:20:02.757Z,16000
2018-10-03T14:25:02.371Z,16000
2018-10-03T14:30:02.949Z,15000
2018-10-03T14:35:02.481Z,8000
2018-10-03T14:40:03.143Z,13000
2018-10-03T14:45:02.771Z,7000
2018-10-03T14:50:02.445Z,6000
2018-10-03T14:55:03.150Z,8000
2018-10-03T15:00:02.789Z,5000
2018-10-03T15:05:02.468Z,6000
2018-10-03T15:10:03.188Z,6000
2018-10-03T15:15:02.785Z,10000
2018-10-03T15:20:02.433Z,11000
2018-10-03T15:25:02.945Z,14000
2018-10-03T15:30:02.651Z,17000
2018-10-03T15:35:02.491Z,20000
2018-10-03T15:40:03.141Z,17000
2018-10-03T15:45:02.713Z,15000
2018-10-03T15:50:03.362Z,4000
2018-10-03T15:55:03.004Z,13000
2018-10-03T16:00:03.011Z,4000
2018-10-03T16:05:02.667Z,3000
2018-10-03T16:10:03.301Z,3000
2018-10-03T16:15:02.857Z,2000
2018-10-03T16:20:02.516Z,2000
2018-10-03T16:25:03.155Z,1000
2018-10-03T16:30:02.712Z,1000
2018-10-03T16:35:03.327Z,1000
2018-10-03T16:40:02.875Z,1000
2018-10-03T16:45:02.508Z,791
2018-10-03T16:50:03.326Z,659
2018-10-03T16:55:02.546Z,458
2018-10-03T17:00:03.199Z,366
2018-10-03T17:05:02.812Z,256
2018-10-03T17:10:02.485Z,126
2018-10-03T17:15:03.149Z,67
2018-10-03T17:20:02.748Z,50
2018-10-03T17:25:02.450Z,39
2018-10-03T17:30:03.262Z,23
2018-10-03T17:35:02.933Z,5
2018-10-03T17:40:02.657Z,2
2018-10-03T17:45:03.379Z,1
2018-10-03T17:50:03.033Z,0
2018-10-03T17:55:02.666Z,0
2018-10-03T18:00:02.409Z,0
2018-10-03T18:05:03.530Z,0
2018-10-03T18:10:02.772Z,0
2018-10-03T18:15:03.312Z,0
2018-10-03T18:20:02.976Z,0
2018-10-03T18:25:02.679Z,0
2018-10-03T18:30:03.376Z,0
2018-10-03T18:35:02.998Z,0
2018-10-03T18:40:02.770Z,0
2018-10-03T18:45:02.593Z,0
2018-10-03T18:50:02.635Z,0
2018-10-03T18:55:03.317Z,0
2018-10-03T19:00:02.941Z,0
2018-10-03T19:10:02.614Z,0
2018-10-03T19:15:02.713Z,0
2018-10-03T19:20:03.084Z,0
2018-10-03T19:25:02.533Z,0
2018-10-03T19:30:02.741Z,0
2018-10-03T19:35:03.165Z,0
2018-10-03T19:40:02.948Z,0
2018-10-03T19:45:02.732Z,0
2018-10-03T19:50:02.456Z,0
2018-10-03T19:55:03.054Z,0
2018-10-03T20:00:02.598Z,0
2018-10-03T20:05:03.298Z,0
2018-10-03T20:10:02.888Z,0
2018-10-03T20:15:02.494Z,0
2018-10-03T20:20:03.167Z,0
2018-10-03T20:25:02.760Z,0
2018-10-03T20:30:03.499Z,0
2018-10-03T20:35:03.101Z,0
2018-10-03T20:40:02.693Z,0
2018-10-03T20:45:03.357Z,0
2018-10-03T20:50:02.924Z,0
2018-10-03T20:55:02.556Z,0
2018-10-03T21:00:03.195Z,0
2018-10-03T21:05:02.930Z,0
2018-10-03T21:10:02.562Z,0
2018-10-03T21:15:03.178Z,0
2018-10-03T21:20:02.773Z,0
2018-10-03T21:25:03.606Z,0
2018-10-03T21:30:03.128Z,0
2018-10-03T21:35:02.740Z,0
2018-10-03T21:40:03.324Z,0
2018-10-03T21:45:02.852Z,0
2018-10-03T21:50:02.551Z,0
2018-10-03T21:55:03.206Z,0
2018-10-03T22:00:02.775Z,0
2018-10-03T22:05:02.422Z,0
2018-10-03T22:10:02.961Z,0
2018-10-03T22:15:02.467Z,0
2018-10-03T22:20:03.049Z,0
2018-10-03T22:25:02.637Z,0
2018-10-03T22:30:03.133Z,0
2018-10-03T22:35:02.723Z,0
2018-10-03T22:40:03.353Z,0
2018-10-03T22:45:02.890Z,0
2018-10-03T22:50:02.656Z,0
2018-10-03T22:55:03.345Z,0
2018-10-03T23:00:02.981Z,0
2018-10-03T23:05:03.155Z,0
2018-10-03T23:10:02.779Z,0
2018-10-03T23:15:02.390Z,0
2018-10-03T23:20:02.973Z,0
2018-10-03T23:25:02.575Z,0
2018-10-03T23:30:03.204Z,0
2018-10-03T23:35:02.870Z,0
2018-10-03T23:40:02.530Z,0
2018-10-03T23:45:03.120Z,0
2018-10-03T23:50:02.783Z,0
2018-10-03T23:55:03.308Z,0
